sensor_id;sensor_type;location;lat;lon;timestamp;pressure;altitude;pressure_sealevel;temperature;humidity
6150;BME280;3106;42.670;23.318;2023-07-29T00:00:44;94347.44;;;20.50;60.87
6150;BME280;3106;42.670;23.318;2023-07-29T00:03:13;94335.41;;;20.48;60.89
6150;BME280;3106;42.670;23.318;2023-07-29T00:05:40;94335.84;;;20.46;61.31
6150;BME280;3106;42.670;23.318;2023-07-29T00:08:07;94338.66;;;20.36;61.61
6150;BME280;3106;42.670;23.318;2023-07-29T00:10:36;94345.31;;;20.31;62.25
6150;BME280;3106;42.670;23.318;2023-07-29T00:13:04;94341.47;;;20.29;62.71
6150;BME280;3106;42.670;23.318;2023-07-29T00:15:31;94348.88;;;20.25;63.25
6150;BME280;3106;42.670;23.318;2023-07-29T00:17:57;94349.34;;;20.16;64.02
6150;BME280;3106;42.670;23.318;2023-07-29T00:20:26;94339.22;;;20.20;63.94
6150;BME280;3106;42.670;23.318;2023-07-29T00:22:53;94338.94;;;20.11;64.34
6150;BME280;3106;42.670;23.318;2023-07-29T00:25:20;94332.34;;;20.09;63.96
6150;BME280;3106;42.670;23.318;2023-07-29T00:27:47;94310.41;;;19.93;63.94
6150;BME280;3106;42.670;23.318;2023-07-29T00:30:14;94340.16;;;20.03;64.13
6150;BME280;3106;42.670;23.318;2023-07-29T00:32:41;94337.47;;;20.00;64.15
6150;BME280;3106;42.670;23.318;2023-07-29T00:35:08;94325.06;;;19.99;64.04
6150;BME280;3106;42.670;23.318;2023-07-29T00:37:36;94333.53;;;20.08;64.22
6150;BME280;3106;42.670;23.318;2023-07-29T00:40:15;94330.78;;;20.11;64.33
6150;BME280;3106;42.670;23.318;2023-07-29T00:42:42;94337.75;;;20.12;65.47
6150;BME280;3106;42.670;23.318;2023-07-29T00:45:10;94332.00;;;20.07;65.83
6150;BME280;3106;42.670;23.318;2023-07-29T00:47:37;94328.19;;;20.01;66.37
6150;BME280;3106;42.670;23.318;2023-07-29T00:50:05;94321.56;;;19.98;66.08
6150;BME280;3106;42.670;23.318;2023-07-29T00:52:32;94330.56;;;19.92;66.83
6150;BME280;3106;42.670;23.318;2023-07-29T00:55:01;94327.50;;;19.86;67.49
6150;BME280;3106;42.670;23.318;2023-07-29T00:57:29;94331.03;;;19.83;67.81
6150;BME280;3106;42.670;23.318;2023-07-29T00:59:56;94329.50;;;19.79;67.78
6150;BME280;3106;42.670;23.318;2023-07-29T01:02:23;94299.81;;;19.65;67.61
6150;BME280;3106;42.670;23.318;2023-07-29T01:04:52;94301.34;;;19.70;68.10
6150;BME280;3106;42.670;23.318;2023-07-29T01:07:23;94327.59;;;19.76;68.00
6150;BME280;3106;42.670;23.318;2023-07-29T01:09:57;94318.72;;;19.72;68.04
6150;BME280;3106;42.670;23.318;2023-07-29T01:12:34;94317.22;;;19.68;66.89
6150;BME280;3106;42.670;23.318;2023-07-29T01:15:10;94321.59;;;19.58;66.02
6150;BME280;3106;42.670;23.318;2023-07-29T01:17:42;94312.72;;;19.54;66.42
6150;BME280;3106;42.670;23.318;2023-07-29T01:20:12;94317.69;;;19.59;66.50
6150;BME280;3106;42.670;23.318;2023-07-29T01:22:40;94324.00;;;19.46;67.98
6150;BME280;3106;42.670;23.318;2023-07-29T01:25:09;94318.22;;;19.40;68.18
6150;BME280;3106;42.670;23.318;2023-07-29T01:27:36;94323.66;;;19.40;67.91
6150;BME280;3106;42.670;23.318;2023-07-29T01:30:03;94326.81;;;19.32;68.40
6150;BME280;3106;42.670;23.318;2023-07-29T01:32:36;94319.81;;;19.34;68.38
6150;BME280;3106;42.670;23.318;2023-07-29T01:35:10;94329.13;;;19.33;67.73
6150;BME280;3106;42.670;23.318;2023-07-29T01:37:41;94321.78;;;19.34;67.71
6150;BME280;3106;42.670;23.318;2023-07-29T01:40:11;94316.75;;;19.29;67.21
6150;BME280;3106;42.670;23.318;2023-07-29T01:42:37;94324.03;;;19.42;67.62
6150;BME280;3106;42.670;23.318;2023-07-29T01:45:05;94328.22;;;19.50;66.96
6150;BME280;3106;42.670;23.318;2023-07-29T01:47:32;94330.09;;;19.57;68.91
6150;BME280;3106;42.670;23.318;2023-07-29T01:49:59;94304.25;;;19.45;68.82
6150;BME280;3106;42.670;23.318;2023-07-29T01:52:26;94327.00;;;19.58;68.81
6150;BME280;3106;42.670;23.318;2023-07-29T01:54:53;94323.19;;;19.52;69.01
6150;BME280;3106;42.670;23.318;2023-07-29T01:57:21;94324.31;;;19.55;68.94
6150;BME280;3106;42.670;23.318;2023-07-29T01:59:48;94320.84;;;19.54;68.57
6150;BME280;3106;42.670;23.318;2023-07-29T02:02:14;94307.00;;;19.38;68.97
6150;BME280;3106;42.670;23.318;2023-07-29T02:04:41;94322.06;;;19.46;68.93
6150;BME280;3106;42.670;23.318;2023-07-29T02:07:08;94322.41;;;19.48;68.62
6150;BME280;3106;42.670;23.318;2023-07-29T02:09:35;94317.06;;;19.41;67.69
6150;BME280;3106;42.670;23.318;2023-07-29T02:12:02;94320.88;;;19.47;67.19
6150;BME280;3106;42.670;23.318;2023-07-29T02:14:30;94322.84;;;19.43;67.39
6150;BME280;3106;42.670;23.318;2023-07-29T02:16:57;94324.44;;;19.37;67.42
6150;BME280;3106;42.670;23.318;2023-07-29T02:19:24;94301.41;;;19.15;67.48
6150;BME280;3106;42.670;23.318;2023-07-29T02:21:50;94321.91;;;19.16;67.41
6150;BME280;3106;42.670;23.318;2023-07-29T02:24:17;94327.69;;;19.11;67.81
6150;BME280;3106;42.670;23.318;2023-07-29T02:26:44;94331.97;;;19.19;67.83
6150;BME280;3106;42.670;23.318;2023-07-29T02:29:11;94322.66;;;19.13;67.68
6150;BME280;3106;42.670;23.318;2023-07-29T02:31:39;94328.44;;;19.22;68.25
6150;BME280;3106;42.670;23.318;2023-07-29T02:34:06;94335.78;;;19.22;68.94
6150;BME280;3106;42.670;23.318;2023-07-29T02:36:33;94325.78;;;19.15;69.23
6150;BME280;3106;42.670;23.318;2023-07-29T02:39:00;94334.28;;;19.14;69.36
6150;BME280;3106;42.670;23.318;2023-07-29T02:41:26;94322.66;;;19.17;70.24
6150;BME280;3106;42.670;23.318;2023-07-29T02:43:53;94323.09;;;19.15;70.77
6150;BME280;3106;42.670;23.318;2023-07-29T02:46:20;94328.47;;;19.19;71.50
6150;BME280;3106;42.670;23.318;2023-07-29T02:48:49;94330.41;;;19.15;71.59
6150;BME280;3106;42.670;23.318;2023-07-29T02:51:15;94324.25;;;19.07;71.54
6150;BME280;3106;42.670;23.318;2023-07-29T02:53:42;94331.25;;;19.05;71.33
6150;BME280;3106;42.670;23.318;2023-07-29T02:56:09;94338.97;;;19.06;71.38
6150;BME280;3106;42.670;23.318;2023-07-29T02:58:37;94335.88;;;19.04;72.22
6150;BME280;3106;42.670;23.318;2023-07-29T03:01:05;94332.41;;;19.00;72.46
6150;BME280;3106;42.670;23.318;2023-07-29T03:03:32;94336.75;;;18.87;72.85
6150;BME280;3106;42.670;23.318;2023-07-29T03:06:02;94338.34;;;18.78;73.27
6150;BME280;3106;42.670;23.318;2023-07-29T03:08:30;94347.31;;;18.64;73.65
6150;BME280;3106;42.670;23.318;2023-07-29T03:10:57;94346.19;;;18.55;73.93
6150;BME280;3106;42.670;23.318;2023-07-29T03:13:24;94341.63;;;18.41;75.02
6150;BME280;3106;42.670;23.318;2023-07-29T03:15:51;94348.63;;;18.32;75.08
6150;BME280;3106;42.670;23.318;2023-07-29T03:18:18;94339.34;;;18.29;75.17
6150;BME280;3106;42.670;23.318;2023-07-29T03:20:45;94347.84;;;18.35;75.22
6150;BME280;3106;42.670;23.318;2023-07-29T03:23:13;94342.78;;;18.40;74.95
6150;BME280;3106;42.670;23.318;2023-07-29T03:25:40;94328.50;;;18.29;75.23
6150;BME280;3106;42.670;23.318;2023-07-29T03:28:07;94346.25;;;18.41;75.44
6150;BME280;3106;42.670;23.318;2023-07-29T03:30:33;94355.53;;;18.40;75.93
6150;BME280;3106;42.670;23.318;2023-07-29T03:33:00;94349.41;;;18.29;76.36
6150;BME280;3106;42.670;23.318;2023-07-29T03:35:27;94349.38;;;18.25;76.81
6150;BME280;3106;42.670;23.318;2023-07-29T03:37:54;94335.13;;;18.15;76.72
6150;BME280;3106;42.670;23.318;2023-07-29T03:40:22;94351.69;;;18.20;76.56
6150;BME280;3106;42.670;23.318;2023-07-29T03:42:50;94324.66;;;18.17;76.20
6150;BME280;3106;42.670;23.318;2023-07-29T03:45:17;94347.81;;;18.38;76.11
6150;BME280;3106;42.670;23.318;2023-07-29T03:47:44;94349.34;;;18.43;75.90
6150;BME280;3106;42.670;23.318;2023-07-29T03:50:11;94353.22;;;18.45;75.62
6150;BME280;3106;42.670;23.318;2023-07-29T03:52:38;94353.97;;;18.46;75.42
6150;BME280;3106;42.670;23.318;2023-07-29T03:55:05;94350.13;;;18.43;75.65
6150;BME280;3106;42.670;23.318;2023-07-29T03:57:33;94333.88;;;18.43;75.40
6150;BME280;3106;42.670;23.318;2023-07-29T04:00:00;94333.50;;;18.41;75.05
6150;BME280;3106;42.670;23.318;2023-07-29T04:02:27;94331.56;;;18.38;74.85
6150;BME280;3106;42.670;23.318;2023-07-29T04:04:54;94334.28;;;18.35;75.13
6150;BME280;3106;42.670;23.318;2023-07-29T04:07:21;94334.72;;;18.30;75.19
6150;BME280;3106;42.670;23.318;2023-07-29T04:09:48;94347.44;;;18.29;75.18
6150;BME280;3106;42.670;23.318;2023-07-29T04:12:15;94362.16;;;18.32;75.50
6150;BME280;3106;42.670;23.318;2023-07-29T04:14:43;94348.63;;;18.22;75.90
6150;BME280;3106;42.670;23.318;2023-07-29T04:17:10;94350.94;;;18.27;75.94
6150;BME280;3106;42.670;23.318;2023-07-29T04:19:37;94361.38;;;18.35;75.95
6150;BME280;3106;42.670;23.318;2023-07-29T04:22:04;94356.72;;;18.42;75.75
6150;BME280;3106;42.670;23.318;2023-07-29T04:24:31;94354.75;;;18.46;75.78
6150;BME280;3106;42.670;23.318;2023-07-29T04:26:58;94350.84;;;18.51;75.85
6150;BME280;3106;42.670;23.318;2023-07-29T04:29:24;94357.81;;;18.55;75.60
6150;BME280;3106;42.670;23.318;2023-07-29T04:31:53;94345.44;;;18.54;75.45
6150;BME280;3106;42.670;23.318;2023-07-29T04:34:20;94343.88;;;18.60;74.88
6150;BME280;3106;42.670;23.318;2023-07-29T04:36:47;94360.44;;;18.73;74.75
6150;BME280;3106;42.670;23.318;2023-07-29T04:39:14;94359.66;;;18.76;73.01
6150;BME280;3106;42.670;23.318;2023-07-29T04:41:41;94364.22;;;18.89;71.93
6150;BME280;3106;42.670;23.318;2023-07-29T04:44:08;94364.97;;;18.93;71.20
6150;BME280;3106;42.670;23.318;2023-07-29T04:46:35;94366.16;;;18.89;70.39
6150;BME280;3106;42.670;23.318;2023-07-29T04:49:05;94359.53;;;19.00;70.18
6150;BME280;3106;42.670;23.318;2023-07-29T04:51:32;94370.31;;;19.07;70.09
6150;BME280;3106;42.670;23.318;2023-07-29T04:53:59;94373.00;;;19.14;69.99
6150;BME280;3106;42.670;23.318;2023-07-29T04:56:26;94353.28;;;19.07;70.04
6150;BME280;3106;42.670;23.318;2023-07-29T04:58:52;94380.31;;;19.24;69.70
6150;BME280;3106;42.670;23.318;2023-07-29T05:01:19;94379.09;;;19.32;69.30
6150;BME280;3106;42.670;23.318;2023-07-29T05:03:46;94381.03;;;19.35;69.09
6150;BME280;3106;42.670;23.318;2023-07-29T05:06:14;94382.19;;;19.38;68.90
6150;BME280;3106;42.670;23.318;2023-07-29T05:08:41;94385.22;;;19.43;68.41
6150;BME280;3106;42.670;23.318;2023-07-29T05:11:08;94376.28;;;19.50;67.77
6150;BME280;3106;42.670;23.318;2023-07-29T05:13:35;94382.00;;;19.59;67.45
6150;BME280;3106;42.670;23.318;2023-07-29T05:16:01;94387.00;;;19.64;66.92
6150;BME280;3106;42.670;23.318;2023-07-29T05:18:28;94395.09;;;19.71;66.70
6150;BME280;3106;42.670;23.318;2023-07-29T05:20:55;94390.00;;;19.80;66.42
6150;BME280;3106;42.670;23.318;2023-07-29T05:23:24;94399.59;;;19.91;66.02
6150;BME280;3106;42.670;23.318;2023-07-29T05:25:50;94392.13;;;19.98;65.99
6150;BME280;3106;42.670;23.318;2023-07-29T05:28:17;94395.13;;;20.14;65.66
6150;BME280;3106;42.670;23.318;2023-07-29T05:30:44;94395.44;;;20.23;65.51
6150;BME280;3106;42.670;23.318;2023-07-29T05:33:11;94400.47;;;20.62;64.38
6150;BME280;3106;42.670;23.318;2023-07-29T05:35:38;94404.75;;;22.90;57.58
6150;BME280;3106;42.670;23.318;2023-07-29T05:38:04;94402.94;;;25.51;49.67
6150;BME280;3106;42.670;23.318;2023-07-29T05:40:35;94405.84;;;27.55;43.61
6150;BME280;3106;42.670;23.318;2023-07-29T05:43:01;94416.13;;;28.42;40.99
6150;BME280;3106;42.670;23.318;2023-07-29T05:45:28;94416.97;;;28.78;40.08
6150;BME280;3106;42.670;23.318;2023-07-29T05:47:56;94421.06;;;28.65;40.03
6150;BME280;3106;42.670;23.318;2023-07-29T05:50:23;94419.72;;;28.96;39.51
6150;BME280;3106;42.670;23.318;2023-07-29T05:52:50;94422.44;;;30.18;37.96
6150;BME280;3106;42.670;23.318;2023-07-29T05:55:16;94420.75;;;31.38;35.32
6150;BME280;3106;42.670;23.318;2023-07-29T05:57:45;94425.72;;;32.89;33.39
6150;BME280;3106;42.670;23.318;2023-07-29T06:00:12;94425.38;;;33.93;31.19
6150;BME280;3106;42.670;23.318;2023-07-29T06:02:39;94432.81;;;34.38;29.66
6150;BME280;3106;42.670;23.318;2023-07-29T06:05:07;94437.72;;;34.53;29.38
6150;BME280;3106;42.670;23.318;2023-07-29T06:07:33;94442.50;;;35.37;28.56
6150;BME280;3106;42.670;23.318;2023-07-29T06:10:00;94430.97;;;35.60;27.30
6150;BME280;3106;42.670;23.318;2023-07-29T06:12:27;94441.66;;;36.22;26.97
6150;BME280;3106;42.670;23.318;2023-07-29T06:14:55;94434.00;;;35.68;27.43
6150;BME280;3106;42.670;23.318;2023-07-29T06:17:22;94439.09;;;35.75;27.83
6150;BME280;3106;42.670;23.318;2023-07-29T06:19:49;94436.03;;;35.89;27.18
6150;BME280;3106;42.670;23.318;2023-07-29T06:22:16;94430.50;;;36.00;26.88
6150;BME280;3106;42.670;23.318;2023-07-29T06:24:42;94422.44;;;36.19;26.48
6150;BME280;3106;42.670;23.318;2023-07-29T06:27:09;94415.09;;;36.10;26.30
6150;BME280;3106;42.670;23.318;2023-07-29T06:29:36;94421.88;;;35.93;26.43
6150;BME280;3106;42.670;23.318;2023-07-29T06:32:05;94423.66;;;35.85;26.95
6150;BME280;3106;42.670;23.318;2023-07-29T06:34:32;94402.66;;;35.84;26.58
6150;BME280;3106;42.670;23.318;2023-07-29T06:36:59;94410.66;;;34.85;28.25
6150;BME280;3106;42.670;23.318;2023-07-29T06:39:26;94394.63;;;33.96;29.26
6150;BME280;3106;42.670;23.318;2023-07-29T06:41:53;94400.25;;;34.07;29.67
6150;BME280;3106;42.670;23.318;2023-07-29T06:44:20;94389.06;;;33.45;29.77
6150;BME280;3106;42.670;23.318;2023-07-29T06:46:47;94391.59;;;33.43;30.09
6150;BME280;3106;42.670;23.318;2023-07-29T06:49:15;94397.53;;;33.56;30.30
6150;BME280;3106;42.670;23.318;2023-07-29T06:51:42;94395.44;;;33.26;30.85
6150;BME280;3106;42.670;23.318;2023-07-29T06:54:08;94397.81;;;33.64;30.30
6150;BME280;3106;42.670;23.318;2023-07-29T06:56:35;94395.03;;;33.58;29.86
6150;BME280;3106;42.670;23.318;2023-07-29T06:59:02;94399.34;;;33.65;29.91
6150;BME280;3106;42.670;23.318;2023-07-29T07:01:29;94407.13;;;33.15;30.12
6150;BME280;3106;42.670;23.318;2023-07-29T07:03:56;94390.59;;;33.46;29.90
6150;BME280;3106;42.670;23.318;2023-07-29T07:06:25;94399.53;;;32.71;31.30
6150;BME280;3106;42.670;23.318;2023-07-29T07:08:52;94398.03;;;32.21;32.55
6150;BME280;3106;42.670;23.318;2023-07-29T07:11:19;94394.31;;;31.51;33.76
6150;BME280;3106;42.670;23.318;2023-07-29T07:13:46;94395.94;;;30.91;34.14
6150;BME280;3106;42.670;23.318;2023-07-29T07:16:12;94391.22;;;30.36;35.29
6150;BME280;3106;42.670;23.318;2023-07-29T07:18:39;94388.34;;;29.57;36.97
6150;BME280;3106;42.670;23.318;2023-07-29T07:21:06;94386.97;;;29.25;36.92
6150;BME280;3106;42.670;23.318;2023-07-29T07:23:34;94382.72;;;29.06;37.62
6150;BME280;3106;42.670;23.318;2023-07-29T07:26:01;94380.41;;;28.78;38.21
6150;BME280;3106;42.670;23.318;2023-07-29T07:28:28;94386.03;;;28.38;39.09
6150;BME280;3106;42.670;23.318;2023-07-29T07:30:55;94378.91;;;28.19;39.06
6150;BME280;3106;42.670;23.318;2023-07-29T07:33:22;94380.91;;;28.19;39.22
6150;BME280;3106;42.670;23.318;2023-07-29T07:36:07;94370.72;;;28.28;38.53
6150;BME280;3106;42.670;23.318;2023-07-29T07:38:35;94369.09;;;28.49;38.89
6150;BME280;3106;42.670;23.318;2023-07-29T07:41:02;94372.75;;;27.67;40.48
6150;BME280;3106;42.670;23.318;2023-07-29T07:43:29;94362.38;;;27.32;40.75
6150;BME280;3106;42.670;23.318;2023-07-29T07:46:00;94374.75;;;27.36;40.40
6150;BME280;3106;42.670;23.318;2023-07-29T07:48:27;94371.75;;;27.43;40.59
6150;BME280;3106;42.670;23.318;2023-07-29T07:50:54;94372.13;;;27.63;40.12
6150;BME280;3106;42.670;23.318;2023-07-29T07:53:21;94369.78;;;27.74;39.86
6150;BME280;3106;42.670;23.318;2023-07-29T07:55:49;94379.22;;;28.12;40.14
6150;BME280;3106;42.670;23.318;2023-07-29T07:58:16;94383.41;;;28.35;39.66
6150;BME280;3106;42.670;23.318;2023-07-29T08:00:43;94371.16;;;28.27;40.08
6150;BME280;3106;42.670;23.318;2023-07-29T08:03:10;94378.84;;;27.62;40.90
6150;BME280;3106;42.670;23.318;2023-07-29T08:05:37;94374.38;;;27.25;41.79
6150;BME280;3106;42.670;23.318;2023-07-29T08:08:03;94365.47;;;27.43;41.02
6150;BME280;3106;42.670;23.318;2023-07-29T08:10:30;94378.50;;;27.51;40.92
6150;BME280;3106;42.670;23.318;2023-07-29T08:12:58;94373.88;;;27.70;40.79
6150;BME280;3106;42.670;23.318;2023-07-29T08:15:25;94380.22;;;27.58;40.23
6150;BME280;3106;42.670;23.318;2023-07-29T08:17:52;94376.84;;;27.84;39.20
6150;BME280;3106;42.670;23.318;2023-07-29T08:20:19;94377.38;;;28.09;39.24
6150;BME280;3106;42.670;23.318;2023-07-29T08:22:45;94382.38;;;28.41;39.25
6150;BME280;3106;42.670;23.318;2023-07-29T08:25:12;94382.44;;;28.20;39.72
6150;BME280;3106;42.670;23.318;2023-07-29T08:27:39;94384.41;;;28.19;39.31
6150;BME280;3106;42.670;23.318;2023-07-29T08:30:08;94389.69;;;28.35;39.16
6150;BME280;3106;42.670;23.318;2023-07-29T08:32:35;94371.09;;;28.66;38.72
6150;BME280;3106;42.670;23.318;2023-07-29T08:35:02;94379.03;;;28.82;37.99
6150;BME280;3106;42.670;23.318;2023-07-29T08:37:29;94374.91;;;28.60;38.34
6150;BME280;3106;42.670;23.318;2023-07-29T08:39:56;94377.50;;;28.81;38.19
6150;BME280;3106;42.670;23.318;2023-07-29T08:42:27;94369.56;;;28.65;37.77
6150;BME280;3106;42.670;23.318;2023-07-29T08:44:56;94377.94;;;28.44;38.45
6150;BME280;3106;42.670;23.318;2023-07-29T08:47:24;94369.22;;;28.36;37.73
6150;BME280;3106;42.670;23.318;2023-07-29T08:49:52;94368.31;;;28.84;37.20
6150;BME280;3106;42.670;23.318;2023-07-29T08:52:20;94358.56;;;28.92;36.37
6150;BME280;3106;42.670;23.318;2023-07-29T08:54:47;94366.63;;;29.14;35.81
6150;BME280;3106;42.670;23.318;2023-07-29T08:57:14;94362.16;;;29.43;35.09
6150;BME280;3106;42.670;23.318;2023-07-29T08:59:41;94359.41;;;29.43;35.10
6150;BME280;3106;42.670;23.318;2023-07-29T09:02:08;94354.38;;;29.33;34.71
6150;BME280;3106;42.670;23.318;2023-07-29T09:04:36;94362.31;;;29.40;34.01
6150;BME280;3106;42.670;23.318;2023-07-29T09:07:05;94360.00;;;29.56;33.40
6150;BME280;3106;42.670;23.318;2023-07-29T09:09:32;94357.31;;;29.79;34.25
6150;BME280;3106;42.670;23.318;2023-07-29T09:11:59;94347.59;;;29.93;34.22
6150;BME280;3106;42.670;23.318;2023-07-29T09:14:26;94345.72;;;29.99;33.52
6150;BME280;3106;42.670;23.318;2023-07-29T09:16:54;94341.97;;;30.20;32.61
6150;BME280;3106;42.670;23.318;2023-07-29T09:19:21;94356.06;;;30.22;30.95
6150;BME280;3106;42.670;23.318;2023-07-29T09:21:52;94336.28;;;29.91;31.26
6150;BME280;3106;42.670;23.318;2023-07-29T09:24:20;94346.16;;;29.74;31.74
6150;BME280;3106;42.670;23.318;2023-07-29T09:26:51;94336.22;;;29.67;32.98
6150;BME280;3106;42.670;23.318;2023-07-29T09:29:22;94345.22;;;29.77;31.97
6150;BME280;3106;42.670;23.318;2023-07-29T09:31:49;94328.47;;;29.57;31.66
6150;BME280;3106;42.670;23.318;2023-07-29T09:34:16;94345.31;;;29.91;31.84
6150;BME280;3106;42.670;23.318;2023-07-29T09:36:43;94338.38;;;29.96;31.93
6150;BME280;3106;42.670;23.318;2023-07-29T09:39:12;94332.53;;;29.70;32.70
6150;BME280;3106;42.670;23.318;2023-07-29T09:41:39;94330.59;;;29.94;32.33
6150;BME280;3106;42.670;23.318;2023-07-29T09:44:07;94327.53;;;30.25;31.24
6150;BME280;3106;42.670;23.318;2023-07-29T09:46:35;94326.00;;;30.47;31.46
6150;BME280;3106;42.670;23.318;2023-07-29T09:49:04;94329.41;;;30.66;30.64
6150;BME280;3106;42.670;23.318;2023-07-29T09:51:31;94318.31;;;30.89;30.09
6150;BME280;3106;42.670;23.318;2023-07-29T09:54:02;94331.00;;;30.96;30.57
6150;BME280;3106;42.670;23.318;2023-07-29T09:56:30;94318.34;;;31.04;30.40
6150;BME280;3106;42.670;23.318;2023-07-29T09:58:57;94316.28;;;31.13;29.68
6150;BME280;3106;42.670;23.318;2023-07-29T10:01:24;94317.53;;;31.26;29.44
6150;BME280;3106;42.670;23.318;2023-07-29T10:03:51;94310.69;;;30.84;30.68
6150;BME280;3106;42.670;23.318;2023-07-29T10:06:22;94310.56;;;29.85;31.34
6150;BME280;3106;42.670;23.318;2023-07-29T10:08:49;94319.72;;;29.58;31.73
6150;BME280;3106;42.670;23.318;2023-07-29T10:11:17;94309.72;;;29.70;31.12
6150;BME280;3106;42.670;23.318;2023-07-29T10:13:47;94306.84;;;30.20;31.34
6150;BME280;3106;42.670;23.318;2023-07-29T10:16:14;94320.91;;;30.31;29.86
6150;BME280;3106;42.670;23.318;2023-07-29T10:18:42;94307.22;;;30.60;29.95
6150;BME280;3106;42.670;23.318;2023-07-29T10:21:11;94300.75;;;30.78;29.78
6150;BME280;3106;42.670;23.318;2023-07-29T10:23:42;94294.59;;;30.97;29.64
6150;BME280;3106;42.670;23.318;2023-07-29T10:26:13;94290.81;;;31.09;29.12
6150;BME280;3106;42.670;23.318;2023-07-29T10:28:41;94280.31;;;30.99;29.29
6150;BME280;3106;42.670;23.318;2023-07-29T10:31:15;94281.84;;;30.85;29.54
6150;BME280;3106;42.670;23.318;2023-07-29T10:33:43;94272.78;;;30.70;29.60
6150;BME280;3106;42.670;23.318;2023-07-29T10:36:10;94285.94;;;30.90;29.60
6150;BME280;3106;42.670;23.318;2023-07-29T10:38:37;94265.06;;;30.60;29.84
6150;BME280;3106;42.670;23.318;2023-07-29T10:41:05;94273.63;;;30.62;30.07
6150;BME280;3106;42.670;23.318;2023-07-29T10:43:33;94266.53;;;30.99;28.89
6150;BME280;3106;42.670;23.318;2023-07-29T10:46:15;94270.31;;;30.72;29.06
6150;BME280;3106;42.670;23.318;2023-07-29T10:48:43;94264.31;;;30.88;29.37
6150;BME280;3106;42.670;23.318;2023-07-29T10:51:24;94260.25;;;30.84;28.92
6150;BME280;3106;42.670;23.318;2023-07-29T10:53:55;94261.34;;;30.63;29.28
6150;BME280;3106;42.670;23.318;2023-07-29T10:56:27;94255.94;;;30.83;29.41
6150;BME280;3106;42.670;23.318;2023-07-29T10:58:59;94250.81;;;31.19;28.56
6150;BME280;3106;42.670;23.318;2023-07-29T11:01:31;94252.88;;;31.53;28.94
6150;BME280;3106;42.670;23.318;2023-07-29T11:04:22;94238.59;;;31.54;27.91
6150;BME280;3106;42.670;23.318;2023-07-29T11:09:52;94248.59;;;31.52;27.88
6150;BME280;3106;42.670;23.318;2023-07-29T11:12:35;94242.41;;;31.42;27.88
6150;BME280;3106;42.670;23.318;2023-07-29T11:15:04;94237.91;;;31.59;28.31
6150;BME280;3106;42.670;23.318;2023-07-29T11:17:33;94239.66;;;31.91;28.00
6150;BME280;3106;42.670;23.318;2023-07-29T11:20:01;94233.72;;;32.38;27.61
6150;BME280;3106;42.670;23.318;2023-07-29T11:22:29;94244.16;;;32.09;27.46
6150;BME280;3106;42.670;23.318;2023-07-29T11:24:56;94231.50;;;31.68;26.91
6150;BME280;3106;42.670;23.318;2023-07-29T11:27:23;94238.78;;;31.65;27.32
6150;BME280;3106;42.670;23.318;2023-07-29T11:29:49;94242.69;;;31.93;26.88
6150;BME280;3106;42.670;23.318;2023-07-29T11:32:16;94237.91;;;31.94;27.14
6150;BME280;3106;42.670;23.318;2023-07-29T11:34:44;94223.53;;;31.55;27.12
6150;BME280;3106;42.670;23.318;2023-07-29T11:37:11;94230.94;;;31.49;27.09
6150;BME280;3106;42.670;23.318;2023-07-29T11:39:39;94215.03;;;31.93;26.58
6150;BME280;3106;42.670;23.318;2023-07-29T11:42:07;94233.09;;;32.09;26.39
6150;BME280;3106;42.670;23.318;2023-07-29T11:44:37;94230.63;;;31.76;27.04
6150;BME280;3106;42.670;23.318;2023-07-29T11:47:06;94218.56;;;32.14;26.74
6150;BME280;3106;42.670;23.318;2023-07-29T11:49:33;94233.38;;;32.31;26.31
6150;BME280;3106;42.670;23.318;2023-07-29T11:52:02;94221.56;;;32.30;26.66
6150;BME280;3106;42.670;23.318;2023-07-29T11:54:29;94223.00;;;32.46;25.33
6150;BME280;3106;42.670;23.318;2023-07-29T11:56:56;94221.53;;;32.70;25.66
6150;BME280;3106;42.670;23.318;2023-07-29T11:59:23;94216.19;;;32.67;25.77
6150;BME280;3106;42.670;23.318;2023-07-29T12:01:51;94214.63;;;32.86;25.42
6150;BME280;3106;42.670;23.318;2023-07-29T12:04:18;94206.88;;;32.95;25.49
6150;BME280;3106;42.670;23.318;2023-07-29T12:06:45;94209.78;;;33.06;25.47
6150;BME280;3106;42.670;23.318;2023-07-29T12:09:14;94212.72;;;33.22;24.81
6150;BME280;3106;42.670;23.318;2023-07-29T12:11:41;94193.94;;;32.81;24.89
6150;BME280;3106;42.670;23.318;2023-07-29T12:14:08;94207.31;;;33.13;24.82
6150;BME280;3106;42.670;23.318;2023-07-29T12:16:40;94193.16;;;33.06;25.34
6150;BME280;3106;42.670;23.318;2023-07-29T12:19:07;94194.09;;;32.27;26.73
6150;BME280;3106;42.670;23.318;2023-07-29T12:21:35;94186.47;;;32.22;26.10
6150;BME280;3106;42.670;23.318;2023-07-29T12:24:02;94189.16;;;32.36;26.02
6150;BME280;3106;42.670;23.318;2023-07-29T12:26:30;94187.47;;;32.44;25.99
6150;BME280;3106;42.670;23.318;2023-07-29T12:28:57;94184.97;;;32.21;26.07
6150;BME280;3106;42.670;23.318;2023-07-29T12:31:31;94177.94;;;32.25;26.09
6150;BME280;3106;42.670;23.318;2023-07-29T12:33:58;94177.13;;;31.79;26.63
6150;BME280;3106;42.670;23.318;2023-07-29T12:36:28;94180.34;;;31.43;25.93
6150;BME280;3106;42.670;23.318;2023-07-29T12:39:06;94180.28;;;31.72;26.34
6150;BME280;3106;42.670;23.318;2023-07-29T12:41:43;94188.19;;;31.99;25.60
6150;BME280;3106;42.670;23.318;2023-07-29T12:44:10;94186.69;;;32.18;25.03
6150;BME280;3106;42.670;23.318;2023-07-29T12:46:37;94193.72;;;31.79;25.45
6150;BME280;3106;42.670;23.318;2023-07-29T12:49:04;94189.00;;;31.65;25.97
6150;BME280;3106;42.670;23.318;2023-07-29T12:51:31;94181.81;;;32.13;24.98
6150;BME280;3106;42.670;23.318;2023-07-29T12:53:58;94179.19;;;32.24;25.63
6150;BME280;3106;42.670;23.318;2023-07-29T12:56:25;94177.22;;;32.70;25.05
6150;BME280;3106;42.670;23.318;2023-07-29T12:58:53;94184.72;;;32.95;25.12
6150;BME280;3106;42.670;23.318;2023-07-29T13:01:20;94176.66;;;32.66;25.09
6150;BME280;3106;42.670;23.318;2023-07-29T13:03:48;94169.59;;;32.65;24.77
6150;BME280;3106;42.670;23.318;2023-07-29T13:06:14;94183.78;;;33.03;24.02
6150;BME280;3106;42.670;23.318;2023-07-29T13:08:42;94177.84;;;33.16;24.24
6150;BME280;3106;42.670;23.318;2023-07-29T13:11:09;94187.44;;;33.46;24.20
6150;BME280;3106;42.670;23.318;2023-07-29T13:13:35;94177.91;;;33.58;24.31
6150;BME280;3106;42.670;23.318;2023-07-29T13:16:04;94177.66;;;33.56;24.47